MAS860 WIMM-WMKK
Flight info
| Callsign | MAS860 |
|---|---|
| Flight time | 0h 47m |
| Altitude | 25000 |
| Route | PUGER PUGER1G |
| Aircraft | B738/M-SDE2E3FGHIRWXY/LB1 |
Departure
| Time | 2026-04-24 12:49 |
|---|---|
| Airport | Kualanamu International Airport (WIMM) |
Arrival
| Time | 2026-04-24 13:36 |
|---|---|
| Airport | Kuala Lumpur International Airport (WMKK) |
| Time | Latitude | Longitude | Altitude | Speed | Heading |
|---|---|---|---|---|---|
| 2026-04-24 12:11 | 3.63808 | 98.87906 | 39 ft | 0 kts | 225° |
| 2026-04-24 12:25 | 3.63810 | 98.87907 | 40 ft | 2 kts | 225° |
| 2026-04-24 12:25 | 3.63823 | 98.87920 | 40 ft | 3 kts | 226° |
| 2026-04-24 12:26 | 3.63836 | 98.87935 | 38 ft | 3 kts | 229° |
| 2026-04-24 12:26 | 3.63849 | 98.87951 | 40 ft | 3 kts | 236° |
| 2026-04-24 12:26 | 3.63859 | 98.87968 | 37 ft | 3 kts | 255° |
| 2026-04-24 12:26 | 3.63860 | 98.87984 | 37 ft | 3 kts | 302° |
| 2026-04-24 12:27 | 3.63857 | 98.87988 | 37 ft | 1 kts | 315° |
| 2026-04-24 12:31 | 3.63858 | 98.87987 | 36 ft | 0 kts | 315° |
| 2026-04-24 12:35 | 3.63865 | 98.87980 | 39 ft | 3 kts | 315° |
| 2026-04-24 12:35 | 3.63893 | 98.87962 | 39 ft | 6 kts | 336° |
| 2026-04-24 12:35 | 3.63941 | 98.87977 | 38 ft | 9 kts | 33° |
| 2026-04-24 12:35 | 3.63994 | 98.88029 | 39 ft | 12 kts | 49° |
| 2026-04-24 12:36 | 3.64060 | 98.88095 | 39 ft | 15 kts | 41° |
| 2026-04-24 12:36 | 3.64150 | 98.88125 | 39 ft | 16 kts | 328° |
| 2026-04-24 12:36 | 3.64238 | 98.88042 | 39 ft | 19 kts | 318° |
| 2026-04-24 12:36 | 3.64285 | 98.87933 | 37 ft | 19 kts | 233° |
| 2026-04-24 12:37 | 3.64188 | 98.87838 | 39 ft | 20 kts | 228° |
| 2026-04-24 12:37 | 3.64080 | 98.87736 | 39 ft | 22 kts | 224° |
| 2026-04-24 12:37 | 3.64018 | 98.87667 | 39 ft | 12 kts | 217° |
| 2026-04-24 12:37 | 3.63949 | 98.87601 | 39 ft | 15 kts | 225° |
| 2026-04-24 12:38 | 3.63869 | 98.87516 | 39 ft | 18 kts | 225° |
| 2026-04-24 12:38 | 3.63785 | 98.87433 | 38 ft | 18 kts | 221° |
| 2026-04-24 12:38 | 3.63691 | 98.87339 | 39 ft | 20 kts | 226° |
| 2026-04-24 12:39 | 3.63454 | 98.86990 | 38 ft | 24 kts | 219° |
| 2026-04-24 12:39 | 3.63330 | 98.86870 | 38 ft | 25 kts | 225° |
| 2026-04-24 12:39 | 3.63202 | 98.86744 | 38 ft | 27 kts | 230° |
| 2026-04-24 12:40 | 3.63073 | 98.86607 | 38 ft | 27 kts | 226° |
| 2026-04-24 12:40 | 3.62937 | 98.86476 | 37 ft | 27 kts | 224° |
| 2026-04-24 12:40 | 3.62810 | 98.86344 | 39 ft | 27 kts | 226° |
| 2026-04-24 12:40 | 3.62674 | 98.86203 | 38 ft | 28 kts | 223° |
| 2026-04-24 12:41 | 3.62530 | 98.86064 | 38 ft | 28 kts | 230° |
| 2026-04-24 12:41 | 3.62520 | 98.85946 | 36 ft | 0 kts | 305° |
| 2026-04-24 12:47 | 3.62543 | 98.85923 | 35 ft | 8 kts | 318° |
| 2026-04-24 12:47 | 3.62611 | 98.85899 | 35 ft | 12 kts | 9° |
| 2026-04-24 12:48 | 3.62707 | 98.85976 | 37 ft | 35 kts | 44° |
| 2026-04-24 12:48 | 3.63052 | 98.86327 | 35 ft | 105 kts | 45° |
| 2026-04-24 12:48 | 3.63713 | 98.86974 | 133 ft | 150 kts | 44° |
| 2026-04-24 12:48 | 3.64531 | 98.87752 | 581 ft | 168 kts | 44° |
| 2026-04-24 12:49 | 3.65283 | 98.88661 | 1222 ft | 171 kts | 70° |
| 2026-04-24 12:49 | 3.65403 | 98.89829 | 1919 ft | 175 kts | 95° |
| 2026-04-24 12:49 | 3.65324 | 98.91157 | 2197 ft | 208 kts | 94° |
| 2026-04-24 12:49 | 3.65247 | 98.92675 | 2418 ft | 235 kts | 94° |
| 2026-04-24 12:50 | 3.65161 | 98.94396 | 2730 ft | 257 kts | 94° |
| 2026-04-24 12:50 | 3.65069 | 98.96207 | 3384 ft | 263 kts | 93° |
| 2026-04-24 12:50 | 3.64975 | 98.98046 | 4109 ft | 266 kts | 93° |
| 2026-04-24 12:50 | 3.64879 | 98.99910 | 4866 ft | 269 kts | 93° |
| 2026-04-24 12:51 | 3.64781 | 99.01786 | 5621 ft | 271 kts | 93° |
| 2026-04-24 12:51 | 3.64671 | 99.03682 | 6320 ft | 275 kts | 95° |
| 2026-04-24 12:51 | 3.64425 | 99.05590 | 7001 ft | 278 kts | 99° |
| 2026-04-24 12:51 | 3.64059 | 99.07493 | 7696 ft | 280 kts | 102° |
| 2026-04-24 12:52 | 3.63645 | 99.09411 | 8373 ft | 283 kts | 102° |
| 2026-04-24 12:52 | 3.63223 | 99.11352 | 9053 ft | 286 kts | 102° |
| 2026-04-24 12:52 | 3.62805 | 99.13307 | 9740 ft | 289 kts | 102° |
| 2026-04-24 12:52 | 3.62391 | 99.15294 | 10328 ft | 295 kts | 101° |
| 2026-04-24 12:53 | 3.61964 | 99.17381 | 10482 ft | 317 kts | 101° |
| 2026-04-24 12:53 | 3.61513 | 99.19617 | 10641 ft | 337 kts | 101° |
| 2026-04-24 12:53 | 3.61047 | 99.21953 | 10760 ft | 355 kts | 101° |
| 2026-04-24 12:53 | 3.60555 | 99.24442 | 10883 ft | 371 kts | 101° |
| 2026-04-24 12:54 | 3.60047 | 99.27020 | 11148 ft | 381 kts | 101° |
| 2026-04-24 12:54 | 3.59533 | 99.29638 | 11610 ft | 384 kts | 101° |
| 2026-04-24 12:54 | 3.59017 | 99.32274 | 12148 ft | 386 kts | 101° |
| 2026-04-24 12:54 | 3.58499 | 99.34920 | 12659 ft | 388 kts | 101° |
| 2026-04-24 12:55 | 3.57982 | 99.37559 | 13139 ft | 391 kts | 101° |
| 2026-04-24 12:55 | 3.57455 | 99.40252 | 13639 ft | 394 kts | 101° |
| 2026-04-24 12:55 | 3.56924 | 99.42964 | 14085 ft | 397 kts | 101° |
| 2026-04-24 12:55 | 3.56393 | 99.45677 | 14553 ft | 399 kts | 101° |
| 2026-04-24 12:56 | 3.55864 | 99.48379 | 15015 ft | 400 kts | 101° |
| 2026-04-24 12:56 | 3.55327 | 99.51120 | 15467 ft | 403 kts | 101° |
| 2026-04-24 12:56 | 3.54786 | 99.53883 | 15904 ft | 405 kts | 101° |
| 2026-04-24 12:56 | 3.54242 | 99.56660 | 16337 ft | 407 kts | 101° |
| 2026-04-24 12:57 | 3.53695 | 99.59450 | 16757 ft | 410 kts | 101° |
| 2026-04-24 12:57 | 3.53144 | 99.62260 | 17177 ft | 412 kts | 101° |
| 2026-04-24 12:57 | 3.52590 | 99.65085 | 17587 ft | 414 kts | 101° |
| 2026-04-24 12:57 | 3.52041 | 99.67889 | 17979 ft | 416 kts | 101° |
| 2026-04-24 12:58 | 3.51481 | 99.70741 | 18320 ft | 418 kts | 101° |
| 2026-04-24 12:58 | 3.50919 | 99.73610 | 18618 ft | 421 kts | 101° |
| 2026-04-24 12:58 | 3.50351 | 99.76502 | 18918 ft | 423 kts | 101° |
| 2026-04-24 12:58 | 3.49782 | 99.79404 | 19231 ft | 426 kts | 101° |
| 2026-04-24 12:59 | 3.49210 | 99.82321 | 19540 ft | 428 kts | 101° |
| 2026-04-24 12:59 | 3.48641 | 99.85220 | 19839 ft | 430 kts | 101° |
| 2026-04-24 12:59 | 3.48062 | 99.88167 | 20132 ft | 432 kts | 101° |
| 2026-04-24 12:59 | 3.47480 | 99.91131 | 20420 ft | 434 kts | 101° |
| 2026-04-24 13:00 | 3.46896 | 99.94105 | 20707 ft | 436 kts | 101° |
| 2026-04-24 13:00 | 3.46309 | 99.97097 | 20983 ft | 438 kts | 101° |
| 2026-04-24 13:00 | 3.45724 | 100.00077 | 21254 ft | 441 kts | 101° |
| 2026-04-24 13:00 | 3.45130 | 100.03098 | 21519 ft | 443 kts | 101° |
| 2026-04-24 13:01 | 3.44540 | 100.06103 | 21780 ft | 445 kts | 101° |
| 2026-04-24 13:01 | 3.43939 | 100.09161 | 22047 ft | 447 kts | 101° |
| 2026-04-24 13:01 | 3.43335 | 100.12233 | 22297 ft | 449 kts | 101° |
| 2026-04-24 13:01 | 3.42738 | 100.15270 | 22537 ft | 451 kts | 101° |
| 2026-04-24 13:02 | 3.42131 | 100.18361 | 22770 ft | 453 kts | 101° |
| 2026-04-24 13:02 | 3.41520 | 100.21469 | 23007 ft | 454 kts | 101° |
| 2026-04-24 13:02 | 3.40915 | 100.24547 | 23231 ft | 456 kts | 101° |
| 2026-04-24 13:02 | 3.40300 | 100.27673 | 23449 ft | 458 kts | 101° |
| 2026-04-24 13:03 | 3.39708 | 100.30830 | 23634 ft | 460 kts | 99° |
| 2026-04-24 13:03 | 3.39241 | 100.33970 | 23826 ft | 461 kts | 97° |
| 2026-04-24 13:03 | 3.38900 | 100.37143 | 24312 ft | 452 kts | 95° |
| 2026-04-24 13:03 | 3.38673 | 100.40274 | 24685 ft | 449 kts | 94° |
| 2026-04-24 13:04 | 3.38506 | 100.43401 | 24852 ft | 450 kts | 94° |
| 2026-04-24 13:04 | 3.38330 | 100.46515 | 24843 ft | 454 kts | 94° |
| 2026-04-24 13:04 | 3.38115 | 100.49688 | 24847 ft | 458 kts | 95° |
| 2026-04-24 13:04 | 3.37861 | 100.52886 | 24855 ft | 461 kts | 95° |
| 2026-04-24 13:05 | 3.37582 | 100.56091 | 24854 ft | 464 kts | 96° |
| 2026-04-24 13:05 | 3.37286 | 100.59326 | 24861 ft | 467 kts | 96° |
| 2026-04-24 13:05 | 3.36989 | 100.62530 | 24855 ft | 469 kts | 96° |
| 2026-04-24 13:05 | 3.36687 | 100.65799 | 24852 ft | 471 kts | 96° |
| 2026-04-24 13:06 | 3.36386 | 100.69078 | 24853 ft | 473 kts | 96° |
| 2026-04-24 13:06 | 3.36090 | 100.72322 | 24851 ft | 474 kts | 96° |
| 2026-04-24 13:06 | 3.35791 | 100.75617 | 24847 ft | 475 kts | 96° |
| 2026-04-24 13:06 | 3.35491 | 100.78920 | 24848 ft | 475 kts | 96° |
| 2026-04-24 13:07 | 3.35192 | 100.82222 | 24848 ft | 475 kts | 96° |
| 2026-04-24 13:07 | 3.34896 | 100.85481 | 24845 ft | 476 kts | 96° |
| 2026-04-24 13:07 | 3.34595 | 100.88789 | 24843 ft | 475 kts | 96° |
| 2026-04-24 13:07 | 3.34298 | 100.92098 | 24844 ft | 475 kts | 96° |
| 2026-04-24 13:08 | 3.34016 | 100.95345 | 24841 ft | 474 kts | 95° |
| 2026-04-24 13:08 | 3.33735 | 100.98632 | 24840 ft | 473 kts | 95° |
| 2026-04-24 13:08 | 3.33455 | 101.01919 | 24840 ft | 473 kts | 95° |
| 2026-04-24 13:09 | 3.32896 | 101.08457 | 24834 ft | 471 kts | 95° |
| 2026-04-24 13:09 | 3.32616 | 101.11715 | 24612 ft | 468 kts | 95° |
| 2026-04-24 13:09 | 3.32338 | 101.14942 | 24383 ft | 463 kts | 95° |
| 2026-04-24 13:09 | 3.32064 | 101.18116 | 24170 ft | 462 kts | 95° |
| 2026-04-24 13:10 | 3.31786 | 101.21332 | 23951 ft | 461 kts | 95° |
| 2026-04-24 13:10 | 3.31508 | 101.24537 | 23736 ft | 460 kts | 95° |
| 2026-04-24 13:10 | 3.31236 | 101.27682 | 23518 ft | 458 kts | 95° |
| 2026-04-24 13:10 | 3.30961 | 101.30863 | 23290 ft | 457 kts | 95° |
| 2026-04-24 13:11 | 3.30688 | 101.34019 | 23027 ft | 456 kts | 95° |
| 2026-04-24 13:11 | 3.30414 | 101.37183 | 22776 ft | 454 kts | 95° |
| 2026-04-24 13:11 | 3.30144 | 101.40306 | 22520 ft | 452 kts | 95° |
| 2026-04-24 13:11 | 3.29871 | 101.43458 | 22269 ft | 451 kts | 95° |
| 2026-04-24 13:12 | 3.29604 | 101.46541 | 22024 ft | 449 kts | 95° |
| 2026-04-24 13:12 | 3.29335 | 101.49645 | 21771 ft | 447 kts | 95° |
| 2026-04-24 13:12 | 3.29066 | 101.52748 | 21530 ft | 445 kts | 95° |
| 2026-04-24 13:12 | 3.28799 | 101.55830 | 21289 ft | 443 kts | 95° |
| 2026-04-24 13:13 | 3.28533 | 101.58897 | 21047 ft | 441 kts | 95° |
| 2026-04-24 13:13 | 3.28271 | 101.61911 | 20833 ft | 439 kts | 95° |
| 2026-04-24 13:13 | 3.28007 | 101.64952 | 20598 ft | 437 kts | 95° |
| 2026-04-24 13:13 | 3.27745 | 101.67978 | 20363 ft | 436 kts | 95° |
| 2026-04-24 13:14 | 3.27483 | 101.70993 | 20130 ft | 434 kts | 95° |
| 2026-04-24 13:14 | 3.27199 | 101.73999 | 19892 ft | 432 kts | 97° |
| 2026-04-24 13:14 | 3.26595 | 101.76932 | 19635 ft | 427 kts | 110° |
| 2026-04-24 13:14 | 3.25078 | 101.79422 | 19388 ft | 416 kts | 131° |
| 2026-04-24 13:15 | 3.23055 | 101.81438 | 19197 ft | 404 kts | 135° |
| 2026-04-24 13:15 | 3.21091 | 101.83352 | 18966 ft | 393 kts | 132° |
| 2026-04-24 13:15 | 3.19322 | 101.85401 | 18739 ft | 382 kts | 128° |
| 2026-04-24 13:15 | 3.17714 | 101.87441 | 18517 ft | 373 kts | 127° |
| 2026-04-24 13:16 | 3.16115 | 101.89458 | 18289 ft | 365 kts | 128° |
| 2026-04-24 13:16 | 3.14534 | 101.91420 | 18059 ft | 357 kts | 127° |
| 2026-04-24 13:16 | 3.13328 | 101.93543 | 17741 ft | 349 kts | 107° |
| 2026-04-24 13:16 | 3.12674 | 101.95851 | 17525 ft | 341 kts | 105° |
| 2026-04-24 13:17 | 3.12006 | 101.98113 | 17277 ft | 335 kts | 108° |
| 2026-04-24 13:17 | 3.10977 | 102.00149 | 16977 ft | 332 kts | 128° |
| 2026-04-24 13:17 | 3.09511 | 102.01893 | 16776 ft | 324 kts | 126° |
| 2026-04-24 13:17 | 3.08239 | 102.03742 | 16528 ft | 319 kts | 121° |
| 2026-04-24 13:18 | 3.07078 | 102.05595 | 16285 ft | 316 kts | 122° |
| 2026-04-24 13:18 | 3.05639 | 102.07255 | 16018 ft | 315 kts | 137° |
| 2026-04-24 13:18 | 3.03948 | 102.08652 | 15805 ft | 313 kts | 140° |
| 2026-04-24 13:18 | 3.02266 | 102.10005 | 15565 ft | 311 kts | 141° |
| 2026-04-24 13:19 | 3.00457 | 102.11204 | 15322 ft | 313 kts | 149° |
| 2026-04-24 13:19 | 2.98525 | 102.12179 | 15092 ft | 309 kts | 154° |
| 2026-04-24 13:19 | 2.96572 | 102.13061 | 14787 ft | 308 kts | 154° |
| 2026-04-24 13:19 | 2.94597 | 102.13825 | 14448 ft | 309 kts | 167° |
| 2026-04-24 13:20 | 2.92467 | 102.14134 | 14203 ft | 307 kts | 171° |
| 2026-04-24 13:20 | 2.90344 | 102.14458 | 13857 ft | 309 kts | 167° |
| 2026-04-24 13:20 | 2.88237 | 102.14899 | 13492 ft | 309 kts | 166° |
| 2026-04-24 13:20 | 2.86139 | 102.15214 | 13170 ft | 309 kts | 175° |
| 2026-04-24 13:21 | 2.84031 | 102.14848 | 12792 ft | 312 kts | 207° |
| 2026-04-24 13:21 | 2.82468 | 102.13433 | 12613 ft | 301 kts | 239° |
| 2026-04-24 13:21 | 2.81667 | 102.11495 | 12085 ft | 312 kts | 256° |
| 2026-04-24 13:21 | 2.81453 | 102.09286 | 11386 ft | 325 kts | 275° |
| 2026-04-24 13:22 | 2.81839 | 102.07038 | 10710 ft | 335 kts | 283° |
| 2026-04-24 13:22 | 2.82391 | 102.04732 | 10021 ft | 345 kts | 284° |
| 2026-04-24 13:22 | 2.82934 | 102.02367 | 9298 ft | 353 kts | 282° |
| 2026-04-24 13:22 | 2.83396 | 101.99949 | 8560 ft | 359 kts | 281° |
| 2026-04-24 13:23 | 2.83848 | 101.97465 | 7828 ft | 365 kts | 281° |
| 2026-04-24 13:23 | 2.84209 | 101.95421 | 7244 ft | 368 kts | 277° |
| 2026-04-24 13:23 | 2.84013 | 101.92851 | 6505 ft | 373 kts | 254° |
| 2026-04-24 13:23 | 2.83367 | 101.91262 | 6040 ft | 373 kts | 240° |
| 2026-04-24 13:24 | 2.81741 | 101.89288 | 5447 ft | 369 kts | 218° |
| 2026-04-24 13:24 | 2.79580 | 101.88065 | 5371 ft | 350 kts | 199° |
| 2026-04-24 13:24 | 2.77293 | 101.87575 | 5187 ft | 331 kts | 181° |
| 2026-04-24 13:24 | 2.75109 | 101.87686 | 5069 ft | 298 kts | 172° |
| 2026-04-24 13:25 | 2.73173 | 101.87918 | 4959 ft | 267 kts | 171° |
| 2026-04-24 13:25 | 2.71419 | 101.88096 | 4837 ft | 240 kts | 173° |
| 2026-04-24 13:25 | 2.69853 | 101.88227 | 4809 ft | 213 kts | 173° |
| 2026-04-24 13:25 | 2.68461 | 101.88340 | 4784 ft | 193 kts | 173° |
| 2026-04-24 13:26 | 2.67140 | 101.88449 | 4792 ft | 190 kts | 173° |
| 2026-04-24 13:26 | 2.65827 | 101.88559 | 4816 ft | 185 kts | 173° |
| 2026-04-24 13:26 | 2.64598 | 101.88661 | 4790 ft | 174 kts | 173° |
| 2026-04-24 13:26 | 2.63414 | 101.88761 | 4801 ft | 168 kts | 172° |
| 2026-04-24 13:27 | 2.62242 | 101.88860 | 4799 ft | 168 kts | 173° |
| 2026-04-24 13:27 | 2.61073 | 101.88959 | 4802 ft | 169 kts | 172° |
| 2026-04-24 13:27 | 2.59918 | 101.89057 | 4805 ft | 169 kts | 172° |
| 2026-04-24 13:27 | 2.58729 | 101.89157 | 4589 ft | 169 kts | 172° |
| 2026-04-24 13:28 | 2.57600 | 101.89251 | 4584 ft | 161 kts | 172° |
| 2026-04-24 13:28 | 2.56487 | 101.89345 | 4522 ft | 160 kts | 172° |
| 2026-04-24 13:28 | 2.55381 | 101.89434 | 4518 ft | 160 kts | 175° |
| 2026-04-24 13:28 | 2.54334 | 101.89074 | 4519 ft | 163 kts | 216° |
| 2026-04-24 13:29 | 2.53547 | 101.88232 | 4478 ft | 169 kts | 245° |
| 2026-04-24 13:29 | 2.53621 | 101.87124 | 4516 ft | 166 kts | 305° |
| 2026-04-24 13:29 | 2.54427 | 101.86315 | 4538 ft | 166 kts | 322° |
| 2026-04-24 13:29 | 2.55341 | 101.85604 | 4510 ft | 164 kts | 327° |
| 2026-04-24 13:30 | 2.56247 | 101.84922 | 4443 ft | 164 kts | 322° |
| 2026-04-24 13:30 | 2.57084 | 101.84166 | 4168 ft | 166 kts | 309° |
| 2026-04-24 13:30 | 2.57920 | 101.83342 | 3353 ft | 175 kts | 333° |
| 2026-04-24 13:30 | 2.58885 | 101.82694 | 2993 ft | 159 kts | 334° |
| 2026-04-24 13:31 | 2.59809 | 101.82151 | 2730 ft | 154 kts | 332° |
| 2026-04-24 13:31 | 2.60749 | 101.81590 | 2527 ft | 160 kts | 333° |
| 2026-04-24 13:31 | 2.61677 | 101.80994 | 2404 ft | 158 kts | 326° |
| 2026-04-24 13:31 | 2.62573 | 101.80350 | 2376 ft | 159 kts | 328° |
| 2026-04-24 13:32 | 2.63451 | 101.79753 | 2410 ft | 156 kts | 329° |
| 2026-04-24 13:32 | 2.64359 | 101.79181 | 2591 ft | 160 kts | 330° |
| 2026-04-24 13:32 | 2.65303 | 101.78565 | 2594 ft | 161 kts | 328° |
| 2026-04-24 13:32 | 2.66230 | 101.77921 | 2550 ft | 157 kts | 332° |
| 2026-04-24 13:33 | 2.67132 | 101.77332 | 2386 ft | 159 kts | 328° |
| 2026-04-24 13:33 | 2.68031 | 101.76700 | 2026 ft | 154 kts | 330° |
| 2026-04-24 13:33 | 2.68950 | 101.76161 | 1751 ft | 154 kts | 332° |
| 2026-04-24 13:33 | 2.69780 | 101.75554 | 1505 ft | 156 kts | 324° |
| 2026-04-24 13:34 | 2.70711 | 101.74933 | 1168 ft | 157 kts | 329° |
| 2026-04-24 13:34 | 2.71651 | 101.74374 | 807 ft | 155 kts | 332° |
| 2026-04-24 13:34 | 2.72495 | 101.73743 | 645 ft | 151 kts | 328° |
| 2026-04-24 13:34 | 2.73378 | 101.73181 | 470 ft | 153 kts | 324° |
| 2026-04-24 13:35 | 2.74262 | 101.72593 | 298 ft | 158 kts | 326° |
| 2026-04-24 13:35 | 2.75163 | 101.71992 | 96 ft | 154 kts | 326° |
| 2026-04-24 13:35 | 2.75961 | 101.71453 | 73 ft | 117 kts | 327° |
| 2026-04-24 13:35 | 2.76482 | 101.71057 | 63 ft | 78 kts | 309° |
| 2026-04-24 13:36 | 2.76529 | 101.70849 | 64 ft | 28 kts | 171° |
| 2026-04-24 13:36 | 2.76362 | 101.70979 | 60 ft | 36 kts | 154° |
| 2026-04-24 13:36 | 2.76118 | 101.71124 | 69 ft | 44 kts | 146° |
| 2026-04-24 13:36 | 2.75897 | 101.71227 | 65 ft | 17 kts | 219° |
| 2026-04-24 13:37 | 2.75816 | 101.71111 | 68 ft | 25 kts | 237° |
| 2026-04-24 13:37 | 2.75724 | 101.70975 | 72 ft | 25 kts | 235° |
| 2026-04-24 13:37 | 2.75718 | 101.70966 | 72 ft | 26 kts | 235° |
| 2026-04-24 13:38 | 2.75709 | 101.70953 | 65 ft | 25 kts | 235° |
| 2026-04-24 13:39 | 2.75630 | 101.70837 | 68 ft | 13 kts | 238° |
| 2026-04-24 13:39 | 2.75568 | 101.70794 | 67 ft | 11 kts | 211° |
| 2026-04-24 13:39 | 2.75513 | 101.70744 | 72 ft | 4 kts | 180° |
| 2026-04-24 13:39 | 2.75489 | 101.70756 | 64 ft | 4 kts | 148° |
| 2026-04-24 13:40 | 2.75486 | 101.70757 | 65 ft | 0 kts | 148° |